首页
METAR-TAF:

METAR-TAF

机场 :

Wilkes County Airport

North Wilkesboro, 北卡罗来纳州, 美国

纬度: 36-13N, 经度: 081-05W, 海拔: 396米

当前天气观测

该预报发布于18分钟前的05:15 UTC
静风
温度 0°C
湿度 100%
气压 1006 hPa
能見度: 0.4公里
阴天层高于300英尺

METAR: KUKF 160515Z AUTO 00000KT 1/4SM FG OVC003 00/00 A2971 RMK AO2

时间: 00:33 (05:33 UTC)


TAF: 丢失

超过4000个机场的气象观测和天气预报(METAR&TAF报告)。

可查询的气象台以黄色和红色小点在地图上表示。

将鼠标移到小点上方,可查看气象台名称。

然后点击查看天气观测和预报。

如需切换地图:点击带黑十字的绿色按钮放大地图;点击带横线的绿色按钮缩小地图;或者点击绿色箭头查看邻近地区的地图。


METAR-TAF: